Time;durP1;ratioP1;P1;durP2;ratioP2;P2;SDS_P1;SDS_P2;PMS_P1;PMS_P2;Temp;Humidity;BMP_temperature;BMP_pressure;BME280_temperature;BME280_humidity;BME280_pressure;Samples;Min_cycle;Max_cycle;Signal;HPM_P1;HPM_P2
2023/06/29 00:01:45;;;;;;;;;;;20.30;79.90;;;;;;6247673;28;1456;-78
2023/06/29 00:04:46;;;;;;;;;;;20.30;79.40;;;;;;6248891;28;2551;-78
2023/06/29 00:07:48;;;;;;;;;;;20.20;79.60;;;;;;6257871;28;1083;-78
2023/06/29 00:10:50;;;;;;;;;;;20.20;79.70;;;;;;6256310;28;1398;-76
2023/06/29 00:13:53;;;;;;;;;;;20.20;79.60;;;;;;6257579;28;1049;-78
2023/06/29 00:16:55;;;;;;;;;;;19.90;80.10;;;;;;6258615;28;1993;-76
2023/06/29 00:19:58;;;;;;;;;;;19.70;80.60;;;;;;6256399;28;1404;-78
2023/06/29 00:22:59;;;;;;;;;;;19.50;81.30;;;;;;6257602;28;1037;-77
2023/06/29 00:26:02;;;;;;;;;;;19.70;82.00;;;;;;6257060;28;1092;-76
2023/06/29 00:29:05;;;;;;;;;;;19.80;81.60;;;;;;6257145;28;1139;-76
2023/06/29 00:32:07;;;;;;;;;;;19.80;81.70;;;;;;6253471;28;1422;-78
2023/06/29 00:35:09;;;;;;;;;;;19.90;81.60;;;;;;6256652;28;1967;-77
2023/06/29 00:38:11;;;;;;;;;;;19.80;81.20;;;;;;6241097;28;1467;-78
2023/06/29 00:41:13;;;;;;;;;;;19.60;81.40;;;;;;6241968;28;1405;-77
2023/06/29 00:44:16;;;;;;;;;;;19.30;82.00;;;;;;6257458;28;1029;-76
2023/06/29 00:47:17;;;;;;;;;;;19.00;82.80;;;;;;6256708;28;1081;-77
2023/06/29 00:50:21;;;;;;;;;;;18.90;83.90;;;;;;6255426;28;1388;-79
2023/06/29 00:53:23;;;;;;;;;;;18.90;84.40;;;;;;6254790;28;1031;-76
2023/06/29 00:56:25;;;;;;;;;;;18.80;84.10;;;;;;6253348;28;1891;-78
2023/06/29 00:59:28;;;;;;;;;;;18.80;84.80;;;;;;6250614;28;1381;-76
2023/06/29 01:02:30;;;;;;;;;;;18.70;85.40;;;;;;6228535;28;1039;-77
2023/06/29 01:05:33;;;;;;;;;;;18.80;85.50;;;;;;6234007;28;1355;-76
2023/06/29 01:08:38;;;;;;;;;;;18.80;85.50;;;;;;6252932;28;1120;-77
2023/06/29 01:11:40;;;;;;;;;;;18.90;85.60;;;;;;6250241;28;1385;-77
2023/06/29 01:14:44;;;;;;;;;;;19.00;85.60;;;;;;6252428;28;1894;-77
2023/06/29 01:17:46;;;;;;;;;;;19.10;85.60;;;;;;6252966;28;1030;-75
2023/06/29 01:20:49;;;;;;;;;;;19.10;85.60;;;;;;6249261;28;1394;-78
2023/06/29 01:23:52;;;;;;;;;;;19.10;85.80;;;;;;6252568;28;1016;-74
2023/06/29 01:26:55;;;;;;;;;;;19.00;85.70;;;;;;6252444;28;1026;-78
2023/06/29 01:30:00;;;;;;;;;;;19.00;85.80;;;;;;6251135;28;1530;-75
2023/06/29 01:33:03;;;;;;;;;;;19.00;85.40;;;;;;6226498;28;1378;-77
2023/06/29 01:36:08;;;;;;;;;;;18.80;85.80;;;;;;6227824;28;1973;-76
2023/06/29 01:39:20;;;;;;;;;;;18.80;86.10;;;;;;6227258;28;1078;-79
2023/06/29 01:42:24;;;;;;;;;;;18.90;86.00;;;;;;6247580;28;1616;-77
2023/06/29 01:45:27;;;;;;;;;;;18.80;85.90;;;;;;6238641;28;1378;-74
2023/06/29 01:48:28;;;;;;;;;;;18.80;85.90;;;;;;6227468;28;1070;-76
2023/06/29 01:51:30;;;;;;;;;;;18.70;85.90;;;;;;6241109;28;1556;-77
2023/06/29 01:54:32;;;;;;;;;;;18.50;86.40;;;;;;6238799;28;1382;-78
2023/06/29 01:57:35;;;;;;;;;;;18.30;86.90;;;;;;6226840;28;1894;-77
2023/06/29 02:00:37;;;;;;;;;;;18.10;87.80;;;;;;6226397;28;1385;-76
2023/06/29 02:03:39;;;;;;;;;;;18.00;88.30;;;;;;6227339;28;1104;-76
2023/06/29 02:06:40;;;;;;;;;;;18.00;88.60;;;;;;6228316;28;2545;-78
2023/06/29 02:09:43;;;;;;;;;;;17.80;89.00;;;;;;6251776;28;1131;-77
2023/06/29 02:12:46;;;;;;;;;;;17.70;89.50;;;;;;6248840;28;1763;-76
2023/06/29 02:15:48;;;;;;;;;;;17.70;90.30;;;;;;6250710;28;1902;-79
2023/06/29 02:18:49;;;;;;;;;;;17.70;90.30;;;;;;6249595;28;1354;-78
2023/06/29 02:21:51;;;;;;;;;;;17.70;90.50;;;;;;6249780;28;1413;-77
2023/06/29 02:24:53;;;;;;;;;;;17.60;90.90;;;;;;6250966;28;1027;-77
2023/06/29 02:27:56;;;;;;;;;;;17.60;91.00;;;;;;6250958;28;1004;-77
2023/06/29 02:30:58;;;;;;;;;;;17.80;90.90;;;;;;6214815;28;1409;-79
2023/06/29 02:33:59;;;;;;;;;;;17.80;90.60;;;;;;6225599;28;1193;-77
2023/06/29 02:37:01;;;;;;;;;;;17.90;90.80;;;;;;6226037;28;1985;-75
2023/06/29 02:40:03;;;;;;;;;;;17.90;90.80;;;;;;6224590;28;1433;-77
2023/06/29 02:43:06;;;;;;;;;;;18.00;90.80;;;;;;6244934;28;1483;-78
2023/06/29 02:46:08;;;;;;;;;;;18.10;90.60;;;;;;6250758;28;1104;-77
2023/06/29 02:49:11;;;;;;;;;;;18.10;90.50;;;;;;6250708;28;1109;-77
2023/06/29 02:52:13;;;;;;;;;;;18.00;90.30;;;;;;6247061;28;1507;-78
2023/06/29 02:55:15;;;;;;;;;;;17.70;90.50;;;;;;6250878;28;1975;-77
2023/06/29 02:58:18;;;;;;;;;;;17.60;91.20;;;;;;6250894;28;1021;-77
2023/06/29 03:01:20;;;;;;;;;;;17.70;91.20;;;;;;6248290;28;1361;-77
2023/06/29 03:04:21;;;;;;;;;;;17.60;91.20;;;;;;6252464;28;2091;-75
2023/06/29 03:07:23;;;;;;;;;;;17.70;91.10;;;;;;6248842;28;1362;-75
2023/06/29 03:10:25;;;;;;;;;;;17.80;91.00;;;;;;6248434;28;1402;-76
2023/06/29 03:13:28;;;;;;;;;;;17.80;90.80;;;;;;6250196;28;1122;-78
2023/06/29 03:16:30;;;;;;;;;;;17.60;90.90;;;;;;6249711;28;1906;-77
2023/06/29 03:19:31;;;;;;;;;;;17.40;91.40;;;;;;6248481;28;1373;-79
2023/06/29 03:22:33;;;;;;;;;;;17.30;91.50;;;;;;6246383;28;1477;-78
2023/06/29 03:25:35;;;;;;;;;;;17.40;91.70;;;;;;6249061;28;1350;-77
2023/06/29 03:28:38;;;;;;;;;;;17.40;91.50;;;;;;6249920;28;1073;-76
2023/06/29 03:31:39;;;;;;;;;;;17.40;91.40;;;;;;6248427;28;1362;-77
2023/06/29 03:34:41;;;;;;;;;;;17.30;91.40;;;;;;6249975;28;1122;-79
2023/06/29 03:37:43;;;;;;;;;;;17.10;91.60;;;;;;6250273;28;1960;-76
2023/06/29 03:40:45;;;;;;;;;;;17.00;91.80;;;;;;6243255;28;1358;-77
2023/06/29 03:43:48;;;;;;;;;;;16.90;92.10;;;;;;6248197;28;1608;-75
2023/06/29 03:46:49;;;;;;;;;;;16.90;92.30;;;;;;6249686;28;1106;-77
2023/06/29 03:49:51;;;;;;;;;;;17.00;92.40;;;;;;6250043;28;1058;-76
2023/06/29 03:52:52;;;;;;;;;;;17.10;92.40;;;;;;6246598;28;1495;-78
2023/06/29 03:55:54;;;;;;;;;;;17.20;92.20;;;;;;6245736;28;1898;-77
2023/06/29 03:58:57;;;;;;;;;;;17.10;92.40;;;;;;6225042;28;1047;-77
2023/06/29 04:01:59;;;;;;;;;;;17.10;92.80;;;;;;6239213;28;1394;-77
2023/06/29 04:05:01;;;;;;;;;;;17.20;92.70;;;;;;6244031;28;3006;-77
2023/06/29 04:08:04;;;;;;;;;;;17.30;92.90;;;;;;6200827;28;1098;-80
2023/06/29 04:11:05;;;;;;;;;;;17.40;93.00;;;;;;6245107;28;1376;-78
2023/06/29 04:14:08;;;;;;;;;;;17.40;93.20;;;;;;6249301;28;1068;-77
2023/06/29 04:17:10;;;;;;;;;;;17.40;93.30;;;;;;6249170;28;1906;-77
2023/06/29 04:20:13;;;;;;;;;;;17.30;93.20;;;;;;6238583;28;2131;-75
2023/06/29 04:23:15;;;;;;;;;;;17.10;93.60;;;;;;6224355;28;1441;-77
2023/06/29 04:26:17;;;;;;;;;;;17.10;93.60;;;;;;6227145;28;1418;-75
2023/06/29 04:29:20;;;;;;;;;;;17.00;94.00;;;;;;6243787;28;1535;-77
2023/06/29 04:32:21;;;;;;;;;;;17.10;93.90;;;;;;6230585;28;1322;-75
2023/06/29 04:35:23;;;;;;;;;;;17.20;93.50;;;;;;6229005;28;1337;-75
2023/06/29 04:38:26;;;;;;;;;;;17.20;93.60;;;;;;6228832;28;1906;-75
2023/06/29 04:41:31;;;;;;;;;;;17.30;93.80;;;;;;6229278;28;1100;-77
2023/06/29 04:44:34;;;;;;;;;;;17.40;93.60;;;;;;6229094;28;1086;-75
2023/06/29 04:47:36;;;;;;;;;;;17.50;93.40;;;;;;6229101;28;1464;-78
2023/06/29 04:50:38;;;;;;;;;;;17.50;93.40;;;;;;6228777;28;1060;-76
2023/06/29 04:53:40;;;;;;;;;;;17.30;93.80;;;;;;6228653;28;1026;-77
2023/06/29 04:56:41;;;;;;;;;;;17.20;94.10;;;;;;6228695;28;1899;-76
2023/06/29 04:59:44;;;;;;;;;;;17.30;94.30;;;;;;6228686;28;1097;-76
2023/06/29 05:02:46;;;;;;;;;;;17.40;94.20;;;;;;6206392;28;2767;-75
2023/06/29 05:05:48;;;;;;;;;;;17.50;94.10;;;;;;6203831;28;1096;-76
2023/06/29 05:08:50;;;;;;;;;;;17.60;93.50;;;;;;6204143;28;1273;-75
2023/06/29 05:11:51;;;;;;;;;;;17.60;93.40;;;;;;6204119;28;1007;-77
2023/06/29 05:14:54;;;;;;;;;;;17.60;93.50;;;;;;6203918;28;1147;-78
2023/06/29 05:17:56;;;;;;;;;;;17.60;93.20;;;;;;6203842;28;1910;-77
2023/06/29 05:20:58;;;;;;;;;;;17.60;93.30;;;;;;6204088;28;1039;-77
2023/06/29 05:24:00;;;;;;;;;;;17.70;93.20;;;;;;6203857;28;1721;-76
2023/06/29 05:27:01;;;;;;;;;;;17.70;93.10;;;;;;6203600;28;1089;-76
2023/06/29 05:30:06;;;;;;;;;;;17.70;93.30;;;;;;6203737;28;1072;-76
2023/06/29 05:33:08;;;;;;;;;;;17.70;93.20;;;;;;6203449;28;1038;-75
2023/06/29 05:36:10;;;;;;;;;;;17.70;93.10;;;;;;6203377;28;1910;-76
2023/06/29 05:39:12;;;;;;;;;;;17.90;93.20;;;;;;6203015;28;1065;-75
2023/06/29 05:42:13;;;;;;;;;;;18.00;93.10;;;;;;6203155;28;1057;-78
2023/06/29 05:45:16;;;;;;;;;;;18.10;93.50;;;;;;6202917;28;1069;-75
2023/06/29 05:48:18;;;;;;;;;;;18.10;92.90;;;;;;6203175;28;1106;-76
2023/06/29 05:51:20;;;;;;;;;;;18.20;93.30;;;;;;6203938;28;1044;-75
2023/06/29 05:54:21;;;;;;;;;;;18.20;93.40;;;;;;6205104;28;1045;-76
2023/06/29 05:57:23;;;;;;;;;;;18.20;93.40;;;;;;6206495;28;2703;-75
2023/06/29 06:00:26;;;;;;;;;;;18.30;93.00;;;;;;6202819;28;2108;-74
2023/06/29 06:03:29;;;;;;;;;;;18.40;93.00;;;;;;6202711;28;1282;-75
2023/06/29 06:06:31;;;;;;;;;;;18.40;92.50;;;;;;6202905;28;947;-75
2023/06/29 06:09:33;;;;;;;;;;;18.50;92.20;;;;;;6203211;28;1021;-77
2023/06/29 06:12:35;;;;;;;;;;;18.60;92.20;;;;;;6203455;28;974;-75
2023/06/29 06:15:38;;;;;;;;;;;18.70;91.60;;;;;;6202903;28;1086;-77
2023/06/29 06:18:39;;;;;;;;;;;18.80;91.40;;;;;;6202585;28;1962;-74
2023/06/29 06:21:41;;;;;;;;;;;18.90;91.20;;;;;;6202670;28;1052;-74
2023/06/29 06:24:43;;;;;;;;;;;18.90;91.10;;;;;;6202630;28;978;-77
2023/06/29 06:27:44;;;;;;;;;;;19.00;91.00;;;;;;6202114;28;1055;-75
2023/06/29 06:30:48;;;;;;;;;;;19.10;90.70;;;;;;6202012;28;1156;-77
2023/06/29 06:33:56;;;;;;;;;;;19.10;91.10;;;;;;6202008;28;1318;-75
2023/06/29 06:36:59;;;;;;;;;;;19.10;91.20;;;;;;6202491;28;1903;-77
2023/06/29 06:40:00;;;;;;;;;;;19.10;90.90;;;;;;6203221;28;1175;-77
2023/06/29 06:43:02;;;;;;;;;;;19.20;90.80;;;;;;6203257;28;1116;-76
2023/06/29 06:46:05;;;;;;;;;;;19.30;90.40;;;;;;6202504;28;1063;-76
2023/06/29 06:49:07;;;;;;;;;;;19.40;90.20;;;;;;6201759;28;1090;-78
2023/06/29 06:52:08;;;;;;;;;;;19.40;90.30;;;;;;6200773;28;1102;-77
2023/06/29 06:55:11;;;;;;;;;;;19.50;90.00;;;;;;6201502;28;1067;-75
2023/06/29 06:58:13;;;;;;;;;;;19.70;89.70;;;;;;6201421;28;1978;-77
2023/06/29 07:01:17;;;;;;;;;;;19.80;90.00;;;;;;6201663;28;1113;-77
2023/06/29 07:04:18;;;;;;;;;;;19.90;89.40;;;;;;6201311;28;1036;-77
2023/06/29 07:07:20;;;;;;;;;;;19.90;88.80;;;;;;6203319;28;1009;-77
2023/06/29 07:10:22;;;;;;;;;;;19.80;88.60;;;;;;6201655;28;1059;-75
2023/06/29 07:13:24;;;;;;;;;;;20.00;89.80;;;;;;6200573;28;1207;-76
2023/06/29 07:16:27;;;;;;;;;;;20.10;88.60;;;;;;6200828;28;1894;-78
2023/06/29 07:19:29;;;;;;;;;;;20.20;88.50;;;;;;6200831;28;1121;-77
2023/06/29 07:22:31;;;;;;;;;;;20.30;87.30;;;;;;6200789;28;1034;-76
2023/06/29 07:25:32;;;;;;;;;;;20.40;85.90;;;;;;6200638;28;1082;-77
2023/06/29 07:28:34;;;;;;;;;;;20.40;86.30;;;;;;6200666;28;1035;-77
2023/06/29 07:31:38;;;;;;;;;;;20.50;86.10;;;;;;6200604;28;1052;-77
2023/06/29 07:34:40;;;;;;;;;;;20.70;85.80;;;;;;6200478;28;2082;-76
2023/06/29 07:37:41;;;;;;;;;;;20.80;85.70;;;;;;6200348;28;1973;-77
2023/06/29 07:40:43;;;;;;;;;;;20.90;86.00;;;;;;6200325;28;2053;-77
2023/06/29 07:43:50;;;;;;;;;;;21.00;84.80;;;;;;6200371;28;1052;-78
2023/06/29 07:46:53;;;;;;;;;;;21.10;84.90;;;;;;6200427;28;1091;-78
2023/06/29 07:49:54;;;;;;;;;;;21.30;85.10;;;;;;6200364;28;1010;-77
2023/06/29 07:52:57;;;;;;;;;;;21.40;84.10;;;;;;6200509;28;1090;-77
2023/06/29 07:55:59;;;;;;;;;;;21.50;83.20;;;;;;6200466;28;1286;-78
2023/06/29 07:59:00;;;;;;;;;;;21.60;82.80;;;;;;6200279;28;1902;-78
2023/06/29 08:02:04;;;;;;;;;;;21.70;82.90;;;;;;6200986;28;1025;-76
2023/06/29 08:05:07;;;;;;;;;;;21.80;82.50;;;;;;6204861;28;1135;-78
2023/06/29 08:08:09;;;;;;;;;;;21.80;81.30;;;;;;6205119;28;1027;-76
2023/06/29 08:11:12;;;;;;;;;;;21.80;82.20;;;;;;6204761;28;1159;-78
2023/06/29 08:14:14;;;;;;;;;;;21.90;81.00;;;;;;6205542;28;984;-78
2023/06/29 08:17:17;;;;;;;;;;;22.10;81.60;;;;;;6204761;28;1977;-77
2023/06/29 08:20:18;;;;;;;;;;;22.20;80.10;;;;;;6204716;28;959;-77
2023/06/29 08:23:20;;;;;;;;;;;22.20;80.20;;;;;;6204533;28;1009;-76
2023/06/29 08:26:22;;;;;;;;;;;22.40;79.60;;;;;;6204662;28;971;-76
2023/06/29 08:29:23;;;;;;;;;;;22.50;79.10;;;;;;6204402;28;1093;-76
2023/06/29 08:32:26;;;;;;;;;;;22.60;76.80;;;;;;6204183;28;1088;-77
2023/06/29 08:35:28;;;;;;;;;;;22.70;77.90;;;;;;6204191;28;1254;-77
2023/06/29 08:38:30;;;;;;;;;;;22.80;77.40;;;;;;6204189;28;1902;-77
2023/06/29 08:41:31;;;;;;;;;;;22.70;76.90;;;;;;6204210;28;1147;-77
2023/06/29 08:44:33;;;;;;;;;;;22.90;77.60;;;;;;6204106;28;1113;-78
2023/06/29 08:47:38;;;;;;;;;;;23.00;76.30;;;;;;6204193;28;1019;-78
2023/06/29 08:50:42;;;;;;;;;;;23.10;75.20;;;;;;6203874;28;1038;-78
2023/06/29 08:53:44;;;;;;;;;;;23.20;75.00;;;;;;6203933;28;1002;-76
2023/06/29 08:56:46;;;;;;;;;;;23.30;74.80;;;;;;6203828;28;1988;-77
2023/06/29 08:59:49;;;;;;;;;;;23.20;73.90;;;;;;6204158;28;1336;-78
2023/06/29 09:02:53;;;;;;;;;;;23.20;74.20;;;;;;6203823;28;1075;-77
2023/06/29 09:05:55;;;;;;;;;;;23.30;75.20;;;;;;6203854;28;1051;-78
2023/06/29 09:08:57;;;;;;;;;;;23.30;73.30;;;;;;6203569;28;1135;-76
2023/06/29 09:12:00;;;;;;;;;;;23.30;72.80;;;;;;6203393;28;1104;-77
2023/06/29 09:15:02;;;;;;;;;;;23.30;74.10;;;;;;6202829;28;1027;-78
2023/06/29 09:18:05;;;;;;;;;;;23.30;73.70;;;;;;6203427;28;1990;-78
2023/06/29 09:21:08;;;;;;;;;;;23.30;73.30;;;;;;6203331;28;1093;-77
2023/06/29 09:24:10;;;;;;;;;;;23.40;73.40;;;;;;6204443;28;1044;-75
2023/06/29 09:27:12;;;;;;;;;;;23.40;73.30;;;;;;6204900;28;1022;-77
2023/06/29 09:30:17;;;;;;;;;;;23.50;73.30;;;;;;6205100;28;1294;-77
2023/06/29 09:33:21;;;;;;;;;;;23.50;73.10;;;;;;6204830;28;1288;-77
2023/06/29 09:36:25;;;;;;;;;;;23.50;73.50;;;;;;6204181;28;1255;-75
2023/06/29 09:39:27;;;;;;;;;;;23.60;73.40;;;;;;6203077;28;1906;-76
2023/06/29 09:42:29;;;;;;;;;;;23.60;72.70;;;;;;6202826;28;1151;-77
2023/06/29 09:45:32;;;;;;;;;;;23.60;71.00;;;;;;6202880;28;1030;-76
2023/06/29 09:48:35;;;;;;;;;;;23.70;70.30;;;;;;6202883;28;1109;-76
2023/06/29 09:51:38;;;;;;;;;;;23.80;70.60;;;;;;6202582;28;1024;-77
2023/06/29 09:54:40;;;;;;;;;;;23.80;67.60;;;;;;6206217;28;977;-75
2023/06/29 09:57:42;;;;;;;;;;;24.00;68.00;;;;;;6203454;28;1898;-75
2023/06/29 10:00:45;;;;;;;;;;;24.10;67.30;;;;;;6202533;28;1072;-76
2023/06/29 10:03:48;;;;;;;;;;;24.20;67.20;;;;;;6202348;28;1007;-79
2023/06/29 10:06:56;;;;;;;;;;;24.30;66.90;;;;;;6202296;28;1059;-79
2023/06/29 10:09:58;;;;;;;;;;;24.40;66.30;;;;;;6202255;28;1101;-77
2023/06/29 10:13:00;;;;;;;;;;;24.50;66.10;;;;;;6202318;28;1006;-77
2023/06/29 10:16:04;;;;;;;;;;;24.60;66.30;;;;;;6202197;28;1111;-78
2023/06/29 10:19:15;;;;;;;;;;;24.70;66.70;;;;;;6201592;28;1988;-77
2023/06/29 10:22:18;;;;;;;;;;;24.80;65.70;;;;;;6201969;28;1104;-77
2023/06/29 10:25:21;;;;;;;;;;;24.90;66.20;;;;;;6201542;28;1023;-77
2023/06/29 10:28:23;;;;;;;;;;;25.00;64.80;;;;;;6200887;28;1155;-77
2023/06/29 10:31:32;;;;;;;;;;;25.00;65.50;;;;;;6201831;28;1062;-77
2023/06/29 10:34:38;;;;;;;;;;;25.10;65.10;;;;;;6201507;28;1405;-77
2023/06/29 10:37:42;;;;;;;;;;;25.10;65.00;;;;;;6201577;28;1982;-76
2023/06/29 10:40:47;;;;;;;;;;;25.20;65.10;;;;;;6201429;28;1098;-77
2023/06/29 10:43:56;;;;;;;;;;;25.30;65.00;;;;;;6201569;28;1030;-77
2023/06/29 10:46:57;;;;;;;;;;;25.30;65.20;;;;;;6201278;28;1084;-77
2023/06/29 10:50:21;;;;;;;;;;;25.40;64.80;;;;;;6201289;28;1106;-76
2023/06/29 10:53:23;;;;;;;;;;;25.50;65.00;;;;;;6201621;28;996;-77
2023/06/29 10:56:31;;;;;;;;;;;25.60;64.70;;;;;;6201420;28;1090;-78
2023/06/29 10:59:36;;;;;;;;;;;25.60;64.30;;;;;;6201050;28;1906;-76
2023/06/29 11:02:38;;;;;;;;;;;25.70;65.50;;;;;;6200968;28;1088;-77
2023/06/29 11:05:41;;;;;;;;;;;25.90;63.80;;;;;;6201045;28;1150;-77
2023/06/29 11:08:43;;;;;;;;;;;25.90;64.20;;;;;;6200755;28;1040;-75
2023/06/29 11:11:47;;;;;;;;;;;26.00;64.60;;;;;;6200921;28;848;-77
2023/06/29 11:14:51;;;;;;;;;;;26.10;63.40;;;;;;6200822;28;1081;-78
2023/06/29 11:17:53;;;;;;;;;;;26.20;64.50;;;;;;6201712;28;1981;-77
2023/06/29 11:20:58;;;;;;;;;;;26.40;63.30;;;;;;6202368;28;1091;-77
2023/06/29 11:24:00;;;;;;;;;;;26.40;62.40;;;;;;6202566;28;1489;-77
2023/06/29 11:27:02;;;;;;;;;;;26.30;62.10;;;;;;6202325;28;1963;-78
2023/06/29 11:30:07;;;;;;;;;;;26.40;62.30;;;;;;6203909;28;1080;-76
2023/06/29 11:33:11;;;;;;;;;;;26.50;61.60;;;;;;6204708;28;1057;-77
2023/06/29 11:36:14;;;;;;;;;;;26.50;62.30;;;;;;6207680;28;1095;-76
2023/06/29 11:39:17;;;;;;;;;;;26.60;62.20;;;;;;6201940;28;1989;-79
2023/06/29 11:42:21;;;;;;;;;;;26.80;62.20;;;;;;6203337;28;1101;-78
2023/06/29 11:45:23;;;;;;;;;;;26.80;61.70;;;;;;6203788;28;1015;-77
2023/06/29 11:48:25;;;;;;;;;;;26.70;61.30;;;;;;6204227;28;1015;-77
2023/06/29 11:51:28;;;;;;;;;;;26.80;60.90;;;;;;6200833;28;1093;-76
2023/06/29 11:54:32;;;;;;;;;;;26.90;61.10;;;;;;6200444;28;1093;-79
2023/06/29 11:57:34;;;;;;;;;;;27.10;60.40;;;;;;6200128;28;1055;-78
2023/06/29 12:00:36;;;;;;;;;;;27.20;60.00;;;;;;6200091;28;1997;-76
2023/06/29 12:03:39;;;;;;;;;;;27.10;59.70;;;;;;6200191;28;1035;-77
2023/06/29 12:06:51;;;;;;;;;;;27.10;59.80;;;;;;6200061;28;1104;-79
2023/06/29 12:09:53;;;;;;;;;;;27.20;60.10;;;;;;6200089;28;1044;-78
2023/06/29 12:12:55;;;;;;;;;;;27.20;60.30;;;;;;6199960;28;1042;-76
2023/06/29 12:16:01;;;;;;;;;;;27.30;59.50;;;;;;6199992;28;1136;-76
2023/06/29 12:19:10;;;;;;;;;;;27.30;59.50;;;;;;6199890;28;1902;-79
2023/06/29 12:22:15;;;;;;;;;;;27.30;60.40;;;;;;6200340;28;988;-76
2023/06/29 12:25:21;;;;;;;;;;;27.60;60.00;;;;;;6200071;28;1154;-78
2023/06/29 12:28:23;;;;;;;;;;;27.60;59.70;;;;;;6202828;28;1117;-78
2023/06/29 12:31:25;;;;;;;;;;;27.60;59.20;;;;;;6203829;28;1101;-76
2023/06/29 12:34:31;;;;;;;;;;;27.70;59.00;;;;;;6203171;28;1278;-77
2023/06/29 12:37:34;;;;;;;;;;;27.70;59.10;;;;;;6200656;28;1030;-78
2023/06/29 12:40:35;;;;;;;;;;;27.60;59.40;;;;;;6201558;28;1910;-77
2023/06/29 12:43:37;;;;;;;;;;;27.60;59.70;;;;;;6203158;28;1054;-77
2023/06/29 12:46:39;;;;;;;;;;;27.50;58.40;;;;;;6203818;28;1105;-79
2023/06/29 12:49:40;;;;;;;;;;;27.50;57.80;;;;;;6204376;28;1103;-77
2023/06/29 12:52:45;;;;;;;;;;;27.50;58.60;;;;;;6206375;28;1106;-78
2023/06/29 12:55:47;;;;;;;;;;;27.60;59.30;;;;;;6205646;28;1078;-77
2023/06/29 12:58:49;;;;;;;;;;;27.60;58.50;;;;;;6204452;28;1989;-77
2023/06/29 13:01:51;;;;;;;;;;;27.70;58.80;;;;;;6204142;28;1095;-77
2023/06/29 13:04:52;;;;;;;;;;;27.70;59.20;;;;;;6203666;28;1114;-78
2023/06/29 13:07:56;;;;;;;;;;;27.80;58.90;;;;;;6203681;28;1105;-74
2023/06/29 13:10:58;;;;;;;;;;;27.90;58.40;;;;;;6203482;28;1135;-75
2023/06/29 13:14:00;;;;;;;;;;;27.90;58.50;;;;;;6203548;28;1031;-76
2023/06/29 13:17:02;;;;;;;;;;;28.00;57.80;;;;;;6203335;28;1028;-75
2023/06/29 13:20:04;;;;;;;;;;;28.00;57.50;;;;;;6203344;28;1993;-74
2023/06/29 13:23:07;;;;;;;;;;;28.10;58.30;;;;;;6203366;28;1071;-76
2023/06/29 13:26:09;;;;;;;;;;;28.10;57.70;;;;;;6203207;28;1122;-76
2023/06/29 13:29:11;;;;;;;;;;;28.00;57.20;;;;;;6203236;28;1022;-76
2023/06/29 13:32:12;;;;;;;;;;;28.00;57.20;;;;;;6203235;28;1098;-77
2023/06/29 13:35:14;;;;;;;;;;;28.00;57.10;;;;;;6203298;28;1332;-76
2023/06/29 13:38:17;;;;;;;;;;;27.90;57.10;;;;;;6203304;28;1906;-76
2023/06/29 13:41:19;;;;;;;;;;;27.90;57.40;;;;;;6203717;28;1159;-78
2023/06/29 13:44:21;;;;;;;;;;;27.90;57.50;;;;;;6205822;28;1023;-76
2023/06/29 13:47:23;;;;;;;;;;;28.00;57.70;;;;;;6204329;28;1092;-78
2023/06/29 13:50:24;;;;;;;;;;;28.10;57.60;;;;;;6204399;28;1102;-77
2023/06/29 13:53:27;;;;;;;;;;;28.10;57.50;;;;;;6204249;28;1086;-79
2023/06/29 13:56:31;;;;;;;;;;;28.10;57.10;;;;;;6214543;28;2207;-77
2023/06/29 13:59:33;;;;;;;;;;;28.30;57.00;;;;;;6227387;28;1906;-77
2023/06/29 14:02:35;;;;;;;;;;;28.50;58.30;;;;;;6227336;28;1013;-77
2023/06/29 14:05:36;;;;;;;;;;;28.60;57.20;;;;;;6227358;28;1068;-78
2023/06/29 14:08:39;;;;;;;;;;;28.40;56.20;;;;;;6226486;28;1050;-78
2023/06/29 14:11:41;;;;;;;;;;;28.50;57.20;;;;;;6226581;28;1043;-77
2023/06/29 14:14:45;;;;;;;;;;;28.50;58.00;;;;;;6226788;28;1108;-77
2023/06/29 14:17:46;;;;;;;;;;;28.30;59.10;;;;;;6226727;28;1086;-75
2023/06/29 14:20:48;;;;;;;;;;;28.30;59.40;;;;;;6235063;28;1984;-77
2023/06/29 14:23:51;;;;;;;;;;;28.30;58.80;;;;;;6226466;28;1090;-76
2023/06/29 14:26:53;;;;;;;;;;;28.30;58.90;;;;;;6226544;28;1002;-76
2023/06/29 14:29:55;;;;;;;;;;;28.30;59.40;;;;;;6225973;28;1005;-78
2023/06/29 14:32:57;;;;;;;;;;;28.20;59.40;;;;;;6225590;28;1104;-76
2023/06/29 14:35:58;;;;;;;;;;;28.50;59.00;;;;;;6225441;28;1317;-77
2023/06/29 14:39:01;;;;;;;;;;;28.50;58.40;;;;;;6225764;28;1902;-77
2023/06/29 14:42:03;;;;;;;;;;;28.40;58.10;;;;;;6225954;28;1034;-76
2023/06/29 14:45:06;;;;;;;;;;;28.40;58.50;;;;;;6225670;28;1018;-76
2023/06/29 14:48:07;;;;;;;;;;;28.30;58.80;;;;;;6225624;28;1088;-79
2023/06/29 14:51:09;;;;;;;;;;;28.30;59.00;;;;;;6225588;28;1252;-78
2023/06/29 14:54:12;;;;;;;;;;;28.20;58.70;;;;;;6222677;28;1458;-75
2023/06/29 14:57:14;;;;;;;;;;;28.10;59.30;;;;;;6244109;28;1614;-74
2023/06/29 15:00:16;;;;;;;;;;;28.20;59.60;;;;;;6250040;28;1906;-77
2023/06/29 15:03:18;;;;;;;;;;;28.30;58.80;;;;;;6249939;28;1029;-76
2023/06/29 15:06:20;;;;;;;;;;;28.20;58.70;;;;;;6228233;28;1429;-79
2023/06/29 15:09:23;;;;;;;;;;;28.20;58.40;;;;;;6225498;28;1436;-74
2023/06/29 15:12:25;;;;;;;;;;;28.30;58.60;;;;;;6221402;28;1080;-73
2023/06/29 15:15:26;;;;;;;;;;;28.20;59.70;;;;;;6221117;28;1502;-73
2023/06/29 15:18:28;;;;;;;;;;;28.20;59.00;;;;;;6222170;28;1040;-74
2023/06/29 15:21:30;;;;;;;;;;;28.00;59.60;;;;;;6221638;28;1999;-75
2023/06/29 15:24:33;;;;;;;;;;;27.90;59.60;;;;;;6221365;28;1501;-74
2023/06/29 15:27:35;;;;;;;;;;;28.00;59.00;;;;;;6234724;28;1421;-76
2023/06/29 15:30:37;;;;;;;;;;;28.00;59.60;;;;;;6221729;28;1025;-74
2023/06/29 15:33:39;;;;;;;;;;;27.90;58.90;;;;;;6221846;28;1337;-77
2023/06/29 15:36:41;;;;;;;;;;;27.80;59.10;;;;;;6226911;28;1441;-77
2023/06/29 15:39:44;;;;;;;;;;;27.80;59.10;;;;;;6233142;28;1930;-76
2023/06/29 15:42:46;;;;;;;;;;;27.60;59.90;;;;;;6214766;28;2755;-78
2023/06/29 15:45:48;;;;;;;;;;;27.50;59.90;;;;;;6221442;28;2525;-76
2023/06/29 15:48:49;;;;;;;;;;;27.40;59.80;;;;;;6233493;28;2359;-78
2023/06/29 15:51:51;;;;;;;;;;;27.50;59.80;;;;;;6233175;28;2422;-77
2023/06/29 15:54:54;;;;;;;;;;;27.20;60.10;;;;;;6237798;28;1742;-76
2023/06/29 15:57:56;;;;;;;;;;;27.10;60.30;;;;;;6245064;28;1946;-76
2023/06/29 16:00:58;;;;;;;;;;;27.10;60.40;;;;;;6234467;28;1981;-77
2023/06/29 16:03:59;;;;;;;;;;;27.10;60.40;;;;;;6237070;28;2410;-78
2023/06/29 16:07:01;;;;;;;;;;;27.10;60.70;;;;;;6245214;28;1960;-77
2023/06/29 16:10:04;;;;;;;;;;;27.10;60.70;;;;;;6244143;28;1816;-78
2023/06/29 16:13:06;;;;;;;;;;;26.90;60.70;;;;;;6237912;28;1808;-76
2023/06/29 16:16:08;;;;;;;;;;;27.00;60.90;;;;;;6240777;28;1809;-76
2023/06/29 16:19:14;;;;;;;;;;;27.00;60.70;;;;;;6226521;28;1977;-76
2023/06/29 16:22:16;;;;;;;;;;;27.00;60.60;;;;;;6239161;28;1903;-77
2023/06/29 16:25:23;;;;;;;;;;;26.90;60.80;;;;;;6248971;28;1797;-77
2023/06/29 16:28:25;;;;;;;;;;;26.90;60.60;;;;;;6242059;28;1749;-77
2023/06/29 16:31:26;;;;;;;;;;;26.90;61.20;;;;;;6228952;28;1482;-77
2023/06/29 16:34:28;;;;;;;;;;;26.90;61.00;;;;;;6221120;28;1512;-75
2023/06/29 16:37:29;;;;;;;;;;;26.90;61.20;;;;;;6204500;28;1128;-77
2023/06/29 16:40:32;;;;;;;;;;;27.00;61.00;;;;;;6207170;28;1902;-76
2023/06/29 16:43:34;;;;;;;;;;;27.00;61.00;;;;;;6222382;28;1539;-73
2023/06/29 16:46:36;;;;;;;;;;;26.90;61.00;;;;;;6224439;28;1479;-70
2023/06/29 16:49:39;;;;;;;;;;;26.90;61.20;;;;;;6227610;28;1509;-70
2023/06/29 16:52:40;;;;;;;;;;;26.90;61.50;;;;;;6228774;28;1191;-70
2023/06/29 16:55:43;;;;;;;;;;;26.70;61.30;;;;;;6217552;28;2727;-70
2023/06/29 16:58:45;;;;;;;;;;;26.70;61.90;;;;;;6225382;28;1676;-70
2023/06/29 17:01:47;;;;;;;;;;;26.70;62.00;;;;;;6220445;28;2682;-71
2023/06/29 17:04:48;;;;;;;;;;;26.80;61.80;;;;;;6245152;28;2426;-73
2023/06/29 17:07:50;;;;;;;;;;;26.70;62.30;;;;;;6244073;28;1725;-72
2023/06/29 17:10:55;;;;;;;;;;;26.70;63.60;;;;;;6227968;28;1001;-71
2023/06/29 17:13:57;;;;;;;;;;;26.70;62.80;;;;;;6225539;28;2174;-71
2023/06/29 17:16:59;;;;;;;;;;;26.70;62.60;;;;;;6220025;28;2521;-71
2023/06/29 17:20:02;;;;;;;;;;;26.70;62.20;;;;;;6203212;28;2891;-71
2023/06/29 17:23:04;;;;;;;;;;;26.70;62.30;;;;;;6217951;28;2034;-72
2023/06/29 17:26:09;;;;;;;;;;;26.60;62.30;;;;;;6226459;28;1903;-71
2023/06/29 17:29:10;;;;;;;;;;;26.60;62.40;;;;;;6203276;28;1094;-72
2023/06/29 17:32:12;;;;;;;;;;;26.60;62.50;;;;;;6209632;28;1416;-71
2023/06/29 17:35:14;;;;;;;;;;;26.40;62.90;;;;;;6247207;28;2304;-71
2023/06/29 17:38:16;;;;;;;;;;;26.40;63.60;;;;;;6244289;28;1381;-72
2023/06/29 17:41:19;;;;;;;;;;;26.50;63.60;;;;;;6251739;28;1906;-72
2023/06/29 17:44:21;;;;;;;;;;;26.50;63.00;;;;;;6222998;28;1506;-71
2023/06/29 17:47:22;;;;;;;;;;;26.50;63.20;;;;;;6235470;28;1612;-73
2023/06/29 17:50:24;;;;;;;;;;;26.50;63.20;;;;;;6226862;28;1197;-72
2023/06/29 17:53:26;;;;;;;;;;;26.50;63.10;;;;;;6214466;28;2832;-71
2023/06/29 17:56:29;;;;;;;;;;;26.50;63.20;;;;;;6225999;28;1539;-72
2023/06/29 17:59:31;;;;;;;;;;;26.50;63.50;;;;;;6226449;28;2887;-73